createdAt,value
2019-03-25T00:00:40.239Z,98375.00
2019-03-25T00:04:41.158Z,98371.00
2019-03-25T00:08:42.149Z,98372.00
2019-03-25T00:12:43.125Z,98372.00
2019-03-25T00:16:44.661Z,98374.00
2019-03-25T00:20:45.930Z,98362.00
2019-03-25T00:24:48.744Z,98358.00
2019-03-25T00:28:49.720Z,98350.00
2019-03-25T00:32:50.690Z,98339.00
2019-03-25T00:36:51.634Z,98346.00
2019-03-25T00:40:52.519Z,98343.00
2019-03-25T00:44:53.383Z,98337.00
2019-03-25T00:48:54.432Z,98346.00
2019-03-25T00:52:55.308Z,98339.00
2019-03-25T00:56:56.348Z,98341.00
2019-03-25T01:00:57.428Z,98344.00
2019-03-25T01:04:58.348Z,98352.00
2019-03-25T01:08:59.233Z,98340.00
2019-03-25T01:13:01.389Z,98349.00
2019-03-25T01:17:02.692Z,98347.00
2019-03-25T01:21:03.643Z,98340.00
2019-03-25T01:25:05.120Z,98336.00
2019-03-25T01:29:06.117Z,98326.00
2019-03-25T01:33:07.110Z,98331.00
2019-03-25T01:37:07.972Z,98324.00
2019-03-25T01:41:08.938Z,98311.00
2019-03-25T01:45:10.136Z,98313.00
2019-03-25T01:49:11.018Z,98308.00
2019-03-25T01:53:11.912Z,98301.00
2019-03-25T01:57:12.852Z,98301.00
2019-03-25T02:01:13.742Z,98293.00
2019-03-25T02:05:14.672Z,98286.00
2019-03-25T02:09:15.534Z,98287.00
2019-03-25T02:13:16.387Z,98285.00
2019-03-25T02:17:17.276Z,98279.00
2019-03-25T02:21:18.143Z,98262.00
2019-03-25T02:25:25.440Z,98274.00
2019-03-25T02:29:23.992Z,98262.00
2019-03-25T02:33:24.863Z,98271.00
2019-03-25T02:37:25.744Z,98257.00
2019-03-25T02:41:26.755Z,98265.00
2019-03-25T02:45:27.648Z,98259.00
2019-03-25T02:49:28.664Z,98247.00
2019-03-25T02:53:29.524Z,98239.00
2019-03-25T02:57:30.497Z,98244.00
2019-03-25T03:01:31.424Z,98243.00
2019-03-25T03:05:32.561Z,98233.00
2019-03-25T03:09:33.412Z,98227.00
2019-03-25T03:13:34.288Z,98221.00
2019-03-25T03:17:35.183Z,98226.00
2019-03-25T03:21:36.171Z,98219.00
2019-03-25T03:25:37.048Z,98217.00
2019-03-25T03:29:37.915Z,98213.00
2019-03-25T03:33:38.911Z,98198.00
2019-03-25T03:37:39.889Z,98193.00
2019-03-25T03:41:40.763Z,98194.00
2019-03-25T03:45:41.646Z,98183.00
2019-03-25T03:49:42.561Z,98187.00
2019-03-25T03:53:43.652Z,98178.00
2019-03-25T03:57:45.450Z,98168.00
2019-03-25T04:01:46.337Z,98166.00
2019-03-25T04:05:47.318Z,98160.00
2019-03-25T04:09:48.187Z,98159.00
2019-03-25T04:13:49.141Z,98151.00
2019-03-25T04:17:50.036Z,98149.00
2019-03-25T04:21:50.996Z,98145.00
2019-03-25T04:25:52.173Z,98147.00
2019-03-25T04:29:53.156Z,98129.00
2019-03-25T04:33:54.207Z,98126.00
2019-03-25T04:37:56.541Z,98125.00
2019-03-25T04:41:58.036Z,98125.00
2019-03-25T04:45:59.025Z,98110.00
2019-03-25T04:50:00.031Z,98117.00
2019-03-25T04:54:00.877Z,98101.00
2019-03-25T04:58:01.737Z,98103.00
2019-03-25T05:02:02.621Z,98107.00
2019-03-25T05:06:03.516Z,98115.00
2019-03-25T05:10:06.592Z,98107.00
2019-03-25T05:14:07.531Z,98109.00
2019-03-25T05:18:08.401Z,98110.00
2019-03-25T05:22:11.117Z,98106.00
2019-03-25T05:26:12.300Z,98105.00
2019-03-25T05:30:13.451Z,98110.00
2019-03-25T05:34:14.351Z,98107.00
2019-03-25T05:38:15.327Z,98098.00
2019-03-25T05:42:16.230Z,98105.00
2019-03-25T05:46:17.202Z,98113.00
2019-03-25T05:50:18.066Z,98108.00
2019-03-25T05:54:18.946Z,98102.00
2019-03-25T05:58:19.835Z,98089.00
2019-03-25T06:02:20.722Z,98073.00
2019-03-25T06:06:21.653Z,98067.00
2019-03-25T06:10:22.662Z,98073.00
2019-03-25T06:14:23.627Z,98083.00
2019-03-25T06:18:24.498Z,98079.00
2019-03-25T06:22:25.350Z,98075.00
2019-03-25T06:26:26.227Z,98073.00
2019-03-25T06:30:27.118Z,98082.00
2019-03-25T06:34:27.985Z,98075.00
2019-03-25T06:38:28.877Z,98076.00
2019-03-25T06:42:30.157Z,98079.00
2019-03-25T06:46:31.322Z,98075.00
2019-03-25T06:50:33.927Z,98089.00
2019-03-25T06:54:36.999Z,98086.00
2019-03-25T06:58:39.935Z,98088.00
2019-03-25T07:02:41.725Z,98098.00
2019-03-25T07:06:43.636Z,98109.00
2019-03-25T07:10:48.916Z,98114.00
2019-03-25T07:14:50.076Z,98115.00
2019-03-25T07:18:50.941Z,98109.00
2019-03-25T07:22:51.820Z,98116.00
2019-03-25T07:26:55.598Z,98125.00
2019-03-25T07:30:56.891Z,98131.00
2019-03-25T07:34:58.005Z,98135.00
2019-03-25T07:39:01.107Z,98145.00
2019-03-25T07:43:07.167Z,98136.00
2019-03-25T07:47:17.209Z,98146.00
2019-03-25T07:51:19.167Z,98140.00
2019-03-25T07:55:20.123Z,98144.00
2019-03-25T07:59:21.125Z,98148.00
2019-03-25T08:03:22.174Z,98114.00
2019-03-25T08:07:23.264Z,98147.00
2019-03-25T08:11:24.326Z,98159.00
2019-03-25T08:15:25.259Z,98149.00
2019-03-25T08:19:26.146Z,98149.00
2019-03-25T08:23:27.082Z,98145.00
2019-03-25T08:27:27.921Z,98129.00
2019-03-25T08:31:28.939Z,98153.00
2019-03-25T08:35:30.045Z,98146.00
2019-03-25T08:39:31.112Z,98147.00
2019-03-25T08:43:31.982Z,98136.00
2019-03-25T08:47:46.484Z,98147.00
2019-03-25T08:51:47.863Z,98167.00
2019-03-25T08:55:48.750Z,98163.00
2019-03-25T08:59:52.101Z,98183.00
2019-03-25T09:03:54.475Z,98174.00
2019-03-25T09:07:55.405Z,98163.00
2019-03-25T09:11:56.442Z,98173.00
2019-03-25T09:15:57.395Z,98161.00
2019-03-25T09:19:58.496Z,98164.00
2019-03-25T09:23:59.489Z,98148.00
2019-03-25T09:28:00.562Z,98148.00
2019-03-25T09:32:01.566Z,98136.00
2019-03-25T09:36:02.825Z,98140.00
2019-03-25T09:40:07.566Z,98127.00
2019-03-25T09:44:08.633Z,98144.00
2019-03-25T09:48:09.786Z,98158.00
2019-03-25T09:52:10.759Z,98159.00
2019-03-25T09:56:11.738Z,98161.00
2019-03-25T10:00:13.042Z,98164.00
2019-03-25T10:04:13.985Z,98165.00
2019-03-25T10:08:14.878Z,98157.00
2019-03-25T10:12:16.014Z,98142.00
2019-03-25T10:16:17.089Z,98145.00
2019-03-25T10:20:18.030Z,98145.00
2019-03-25T10:24:18.987Z,98165.00
2019-03-25T10:28:20.126Z,98173.00
2019-03-25T10:32:21.002Z,98147.00
2019-03-25T10:36:22.179Z,98143.00
2019-03-25T10:40:23.144Z,98120.00
2019-03-25T10:44:24.028Z,98126.00
2019-03-25T10:48:25.149Z,98141.00
2019-03-25T10:52:26.019Z,98156.00
2019-03-25T10:56:26.895Z,98156.00
2019-03-25T11:00:27.949Z,98165.00
2019-03-25T11:04:28.834Z,98156.00
2019-03-25T11:08:29.904Z,98149.00
2019-03-25T11:12:30.864Z,98145.00
2019-03-25T11:16:31.847Z,98170.00
2019-03-25T11:20:32.835Z,98158.00
2019-03-25T11:24:33.707Z,98165.00
2019-03-25T11:28:35.907Z,98155.00
2019-03-25T11:32:36.936Z,98169.00
2019-03-25T11:36:37.930Z,98172.00
2019-03-25T11:40:39.024Z,98182.00
2019-03-25T11:44:40.224Z,98188.00
2019-03-25T11:48:41.333Z,98182.00
2019-03-25T11:52:42.329Z,98186.00
2019-03-25T11:56:43.387Z,98178.00
2019-03-25T12:00:45.877Z,98188.00
2019-03-25T12:04:46.763Z,98198.00
2019-03-25T12:08:47.763Z,98196.00
2019-03-25T12:12:48.827Z,98191.00
2019-03-25T12:16:49.813Z,98192.00
2019-03-25T12:20:50.979Z,98180.00
2019-03-25T12:24:51.847Z,98181.00
2019-03-25T12:28:52.740Z,98175.00
2019-03-25T12:33:03.658Z,98163.00
2019-03-25T12:36:56.604Z,98174.00
2019-03-25T12:40:57.487Z,98173.00
2019-03-25T12:44:58.373Z,98177.00
2019-03-25T12:48:59.468Z,98169.00
2019-03-25T12:53:00.645Z,98180.00
2019-03-25T12:57:01.548Z,98183.00
2019-03-25T13:01:02.604Z,98206.00
2019-03-25T13:05:05.218Z,98209.00
2019-03-25T13:09:06.350Z,98206.00
2019-03-25T13:13:07.448Z,98222.00
2019-03-25T13:17:08.294Z,98232.00
2019-03-25T13:21:09.272Z,98224.00
2019-03-25T13:25:10.163Z,98235.00
2019-03-25T13:29:11.042Z,98230.00
2019-03-25T13:33:12.223Z,98237.00
2019-03-25T13:37:14.208Z,98260.00
2019-03-25T13:41:15.288Z,98274.00
2019-03-25T13:45:16.494Z,98261.00
2019-03-25T13:49:17.413Z,98262.00
2019-03-25T13:53:18.346Z,98251.00
2019-03-25T13:57:19.463Z,98253.00
2019-03-25T14:01:20.426Z,98235.00
2019-03-25T14:05:21.382Z,98235.00
2019-03-25T14:09:22.313Z,98240.00
2019-03-25T14:13:23.183Z,98221.00
2019-03-25T14:17:24.338Z,98223.00
2019-03-25T14:21:25.294Z,98220.00
2019-03-25T14:25:26.192Z,98221.00
2019-03-25T14:29:28.963Z,98228.00
2019-03-25T14:33:29.894Z,98236.00
2019-03-25T14:37:30.843Z,98227.00
2019-03-25T14:41:31.708Z,98230.00
2019-03-25T14:45:35.061Z,98237.00
2019-03-25T14:49:36.063Z,98220.00
2019-03-25T14:53:44.719Z,98230.00
2019-03-25T14:57:39.742Z,98242.00
2019-03-25T15:01:40.712Z,98257.00
2019-03-25T15:05:41.716Z,98257.00
2019-03-25T15:09:42.613Z,98264.00
2019-03-25T15:13:43.657Z,98265.00
2019-03-25T15:17:44.631Z,98261.00
2019-03-25T15:21:45.617Z,98258.00
2019-03-25T15:25:46.535Z,98264.00
2019-03-25T15:29:47.901Z,98274.00
2019-03-25T15:33:48.918Z,98267.00
2019-03-25T15:37:49.820Z,98270.00
2019-03-25T15:41:50.778Z,98274.00
2019-03-25T15:45:52.192Z,98291.00
2019-03-25T15:49:53.691Z,98296.00
2019-03-25T15:53:54.656Z,98294.00
2019-03-25T15:57:55.623Z,98289.00
2019-03-25T16:01:56.629Z,98311.00
2019-03-25T16:05:57.518Z,98312.00
2019-03-25T16:09:58.579Z,98316.00
2019-03-25T16:13:59.533Z,98323.00
2019-03-25T16:18:00.731Z,98320.00
2019-03-25T16:22:01.707Z,98323.00
2019-03-25T16:26:03.266Z,98331.00
2019-03-25T16:30:06.347Z,98336.00
2019-03-25T16:34:07.329Z,98346.00
2019-03-25T16:38:08.263Z,98334.00
2019-03-25T16:42:09.159Z,98350.00
2019-03-25T16:46:10.031Z,98352.00
2019-03-25T16:50:11.147Z,98365.00
2019-03-25T16:54:12.115Z,98375.00
2019-03-25T16:58:13.127Z,98371.00
2019-03-25T17:02:16.030Z,98367.00
2019-03-25T17:06:16.941Z,98387.00
2019-03-25T17:10:17.966Z,98386.00
2019-03-25T17:14:19.200Z,98395.00
2019-03-25T17:18:20.250Z,98402.00
2019-03-25T17:22:21.161Z,98396.00
2019-03-25T17:26:22.151Z,98392.00
2019-03-25T17:30:26.099Z,98390.00
2019-03-25T17:34:27.008Z,98386.00
2019-03-25T17:38:28.006Z,98400.00
2019-03-25T17:42:29.100Z,98421.00
2019-03-25T17:46:30.488Z,98428.00
2019-03-25T17:50:31.454Z,98436.00
2019-03-25T17:54:34.022Z,98441.00
2019-03-25T17:58:35.102Z,98452.00
2019-03-25T18:02:36.425Z,98463.00
2019-03-25T18:06:37.658Z,98476.00
2019-03-25T18:10:38.687Z,98477.00
2019-03-25T18:14:39.552Z,98489.00
2019-03-25T18:18:40.540Z,98515.00
2019-03-25T18:22:41.545Z,98498.00
2019-03-25T18:26:42.517Z,98510.00
2019-03-25T18:30:43.558Z,98528.00
2019-03-25T18:34:44.592Z,98541.00
2019-03-25T18:38:45.598Z,98540.00
2019-03-25T18:42:46.688Z,98542.00
2019-03-25T18:46:47.774Z,98540.00
2019-03-25T18:50:48.688Z,98546.00
2019-03-25T18:54:49.701Z,98547.00
2019-03-25T18:58:50.785Z,98552.00
2019-03-25T19:02:51.952Z,98563.00
2019-03-25T19:06:52.831Z,98558.00
2019-03-25T19:10:53.817Z,98581.00
2019-03-25T19:14:54.759Z,98580.00
2019-03-25T19:18:55.775Z,98583.00
2019-03-25T19:22:56.729Z,98595.00
2019-03-25T19:26:57.642Z,98595.00
2019-03-25T19:30:58.652Z,98588.00
2019-03-25T19:34:59.659Z,98592.00
2019-03-25T19:39:00.734Z,98608.00
2019-03-25T19:43:01.910Z,98608.00
2019-03-25T19:47:02.890Z,98626.00
2019-03-25T19:51:04.042Z,98624.00
2019-03-25T19:55:05.694Z,98630.00
2019-03-25T19:59:06.667Z,98642.00
2019-03-25T20:03:07.746Z,98644.00
2019-03-25T20:07:08.873Z,98653.00
2019-03-25T20:11:09.992Z,98659.00
2019-03-25T20:15:11.194Z,98673.00
2019-03-25T20:19:12.135Z,98675.00
2019-03-25T20:23:13.203Z,98678.00
2019-03-25T20:27:14.284Z,98684.00
2019-03-25T20:31:16.796Z,98692.00
2019-03-25T20:35:17.682Z,98689.00
2019-03-25T20:39:18.730Z,98706.00
2019-03-25T20:43:19.821Z,98709.00
2019-03-25T20:47:20.927Z,98715.00
2019-03-25T20:51:22.139Z,98724.00
2019-03-25T20:55:23.046Z,98716.00
2019-03-25T20:59:26.235Z,98724.00
2019-03-25T21:03:27.391Z,98736.00
2019-03-25T21:07:28.689Z,98739.00
2019-03-25T21:11:29.838Z,98735.00
2019-03-25T21:15:30.903Z,98738.00
2019-03-25T21:19:33.459Z,98740.00
2019-03-25T21:23:34.787Z,98740.00
2019-03-25T21:27:36.396Z,98749.00
2019-03-25T21:31:39.513Z,98751.00
2019-03-25T21:35:40.778Z,98760.00
2019-03-25T21:39:41.825Z,98774.00
2019-03-25T21:43:42.748Z,98804.00
2019-03-25T21:47:44.204Z,98796.00
2019-03-25T21:51:45.533Z,98797.00
2019-03-25T21:55:46.550Z,98799.00
2019-03-25T21:59:47.530Z,98804.00
2019-03-25T22:03:48.392Z,98807.00
2019-03-25T22:07:49.724Z,98806.00
2019-03-25T22:11:50.685Z,98820.00
2019-03-25T22:15:53.510Z,98810.00
2019-03-25T22:19:54.445Z,98808.00
2019-03-25T22:23:57.002Z,98809.00
2019-03-25T22:27:57.888Z,98813.00
2019-03-25T22:32:01.088Z,98823.00
2019-03-25T22:36:02.849Z,98828.00
2019-03-25T22:40:05.469Z,98835.00
2019-03-25T22:44:06.353Z,98846.00
2019-03-25T22:48:07.747Z,98846.00
2019-03-25T22:52:10.248Z,98856.00
2019-03-25T22:56:11.096Z,98859.00
2019-03-25T23:00:16.107Z,98859.00
2019-03-25T23:04:17.216Z,98864.00
2019-03-25T23:08:20.098Z,98875.00
2019-03-25T23:12:21.839Z,98873.00
2019-03-25T23:16:23.005Z,98879.00
2019-03-25T23:20:23.950Z,98877.00
2019-03-25T23:24:24.860Z,98887.00
2019-03-25T23:28:25.808Z,98876.00
2019-03-25T23:32:26.677Z,98881.00
2019-03-25T23:36:30.848Z,98889.00
2019-03-25T23:40:31.808Z,98893.00
2019-03-25T23:44:34.999Z,98888.00
2019-03-25T23:48:35.942Z,98889.00
2019-03-25T23:52:36.943Z,98889.00
2019-03-25T23:56:38.742Z,98888.00
